createdAt,value
2023-04-04T16:40:41.601Z,1540.00
2023-04-04T16:41:42.835Z,1548.00
2023-04-04T16:42:44.139Z,1556.00
2023-04-04T16:43:42.050Z,1576.00
2023-04-04T16:44:41.218Z,1592.00
2023-04-04T16:46:36.249Z,1604.00
2023-04-04T16:46:42.135Z,1624.00
2023-04-04T16:47:41.274Z,1624.00
2023-04-04T16:48:41.308Z,1608.00
2023-04-04T16:49:41.178Z,1552.00
2023-04-04T16:50:41.461Z,1488.00
2023-04-04T16:51:42.476Z,1432.00
2023-04-04T16:52:41.278Z,1400.00
2023-04-04T16:53:41.285Z,1388.00
2023-04-04T16:54:41.152Z,1368.00
2023-04-04T16:55:41.102Z,1340.00
2023-04-04T16:56:41.258Z,1336.00
2023-04-04T16:57:41.051Z,1300.00
2023-04-04T16:58:41.086Z,1288.00
2023-04-04T16:59:41.874Z,1292.00
2023-04-04T17:00:41.422Z,1300.00
2023-04-04T17:01:41.046Z,1292.00
2023-04-04T17:02:40.966Z,1292.00
2023-04-04T17:03:41.005Z,1272.00
2023-04-04T17:04:41.956Z,1244.00
2023-04-04T17:05:41.689Z,1216.00
2023-04-04T17:06:41.718Z,1200.00
2023-04-04T17:07:40.977Z,1180.00
2023-04-04T17:08:41.514Z,1160.00
2023-04-04T17:09:40.894Z,1136.00
2023-04-04T17:10:41.496Z,1124.00
2023-04-04T17:11:41.371Z,1100.00
2023-04-04T17:12:40.908Z,1080.00
2023-04-04T17:13:40.872Z,1056.00
2023-04-04T17:14:41.526Z,1040.00
2023-04-04T17:15:40.789Z,1016.00
2023-04-04T17:16:40.830Z,984.00
2023-04-04T17:17:44.187Z,944.00
2023-04-04T17:18:40.823Z,912.00
2023-04-04T17:19:40.807Z,876.00
2023-04-04T17:20:40.860Z,844.00
2023-04-04T17:21:41.636Z,820.00
2023-04-04T17:22:40.704Z,800.00
2023-04-04T17:23:50.365Z,796.00
2023-04-04T17:24:40.657Z,788.00
2023-04-04T17:25:40.636Z,768.00
2023-04-04T17:26:40.635Z,752.00
2023-04-04T17:27:40.638Z,732.00
2023-04-04T17:28:40.577Z,712.00
2023-04-04T17:29:40.690Z,688.00
2023-04-04T17:30:57.939Z,668.00
2023-04-04T17:31:40.879Z,652.00
2023-04-04T17:32:40.713Z,632.00
2023-04-04T17:33:40.732Z,612.00
2023-04-04T17:34:41.808Z,600.00
2023-04-04T17:35:41.101Z,588.00
2023-04-04T17:36:40.604Z,576.00
2023-04-04T17:37:40.452Z,564.00
2023-04-04T17:38:40.534Z,548.00
2023-04-04T17:39:40.547Z,532.00
2023-04-04T17:40:40.959Z,512.00
2023-04-04T17:41:40.424Z,492.00
2023-04-04T17:42:40.424Z,476.00
2023-04-04T17:43:40.405Z,452.00
2023-04-04T17:44:40.402Z,444.00
2023-04-04T17:45:41.100Z,428.00
2023-04-04T17:46:40.574Z,416.00
2023-04-04T17:47:40.454Z,404.00
2023-04-04T17:48:40.440Z,384.00
2023-04-04T17:49:40.370Z,368.00
2023-04-04T17:50:40.552Z,352.00
2023-04-04T17:51:40.293Z,340.00
2023-04-04T17:52:40.324Z,328.00
2023-04-04T17:53:40.352Z,312.00
2023-04-04T17:54:40.263Z,296.00
2023-04-04T17:55:40.234Z,280.00
2023-04-04T17:56:40.237Z,264.00
2023-04-04T17:57:40.286Z,252.00
2023-04-04T17:58:40.197Z,232.00
2023-04-04T17:59:40.258Z,216.00
2023-04-04T18:00:40.504Z,204.00
2023-04-04T18:01:40.280Z,188.00
2023-04-04T18:02:40.311Z,176.00
2023-04-04T18:03:40.336Z,164.00
2023-04-04T18:04:40.099Z,152.00
2023-04-04T18:05:40.123Z,140.00
2023-04-04T18:06:48.741Z,128.00
2023-04-04T18:07:40.096Z,116.00
2023-04-04T18:08:40.118Z,108.00
2023-04-04T18:09:40.048Z,96.00
2023-04-04T18:10:40.345Z,92.00
2023-04-04T18:11:40.065Z,80.00
2023-04-04T18:12:40.097Z,72.00
2023-04-04T18:13:40.033Z,64.00
2023-04-04T18:14:40.030Z,60.00
2023-04-04T18:15:39.993Z,52.00
2023-04-04T18:16:41.162Z,44.00
2023-04-04T18:17:39.981Z,36.00
2023-04-04T18:18:40.214Z,36.00
2023-04-04T18:19:40.267Z,28.00
2023-04-04T18:20:39.903Z,24.00
2023-04-04T18:21:39.965Z,24.00
2023-04-04T18:22:40.149Z,20.00
2023-04-04T18:23:39.929Z,16.00
2023-04-04T18:24:40.026Z,16.00
2023-04-04T18:25:39.968Z,12.00
2023-04-04T18:26:39.882Z,12.00
2023-04-04T18:27:39.909Z,8.00
2023-04-04T18:28:39.824Z,8.00
2023-04-04T18:29:39.870Z,8.00
2023-04-04T18:30:40.025Z,4.00
2023-04-04T18:31:39.827Z,4.00
2023-04-04T18:32:39.769Z,4.00
2023-04-04T18:33:39.756Z,0.00
2023-04-04T18:34:39.785Z,4.00
2023-04-04T18:35:39.770Z,4.00
2023-04-04T18:36:39.701Z,0.00
2023-04-04T18:37:39.704Z,0.00
2023-04-04T18:38:39.731Z,0.00
2023-04-04T18:39:39.686Z,0.00
2023-04-04T18:40:39.831Z,0.00
2023-04-04T18:41:39.712Z,0.00
2023-04-04T18:42:39.645Z,0.00
2023-04-04T18:43:39.637Z,0.00
2023-04-04T18:44:39.630Z,0.00
2023-04-04T18:45:40.569Z,0.00
2023-04-04T18:46:39.588Z,0.00
2023-04-04T18:47:39.657Z,0.00
2023-04-04T18:48:39.602Z,0.00
2023-04-04T18:49:39.618Z,0.00
2023-04-04T18:50:39.778Z,0.00
2023-04-04T18:51:39.554Z,0.00
2023-04-04T18:52:39.496Z,0.00
2023-04-04T18:53:39.589Z,0.00
2023-04-04T18:54:39.490Z,0.00
2023-04-04T18:55:39.556Z,0.00
2023-04-04T18:56:39.491Z,0.00
2023-04-04T18:57:39.497Z,0.00
2023-04-04T18:58:39.500Z,0.00
2023-04-04T18:59:39.479Z,0.00
2023-04-04T19:00:39.686Z,0.00
2023-04-04T19:01:39.417Z,0.00
2023-04-04T19:02:39.477Z,0.00
2023-04-04T19:03:39.755Z,0.00
2023-04-04T19:04:39.442Z,0.00
2023-04-04T19:05:39.344Z,0.00
2023-04-04T19:06:39.340Z,0.00
2023-04-04T19:07:39.360Z,0.00
2023-04-04T19:08:39.341Z,0.00
2023-04-04T19:09:39.321Z,0.00
2023-04-04T19:10:39.677Z,0.00
2023-04-04T19:11:39.321Z,0.00
2023-04-04T19:12:39.277Z,0.00
2023-04-04T19:13:39.268Z,0.00
2023-04-04T19:14:39.279Z,0.00
2023-04-04T19:15:39.468Z,0.00
2023-04-04T19:16:39.309Z,0.00
2023-04-04T19:17:39.290Z,0.00
2023-04-04T19:18:39.208Z,0.00
2023-04-04T19:19:39.225Z,0.00
2023-04-04T19:20:39.167Z,0.00
2023-04-04T19:21:39.174Z,0.00
2023-04-04T19:22:39.168Z,0.00
2023-04-04T19:23:39.130Z,0.00
2023-04-04T19:24:39.113Z,0.00
2023-04-04T19:25:39.374Z,0.00
2023-04-04T19:26:39.101Z,0.00
2023-04-04T19:27:39.103Z,0.00
2023-04-04T19:28:39.088Z,0.00
2023-04-04T19:29:39.047Z,0.00
2023-04-04T19:30:39.117Z,0.00
2023-04-04T19:31:39.018Z,0.00
2023-04-04T19:32:39.183Z,0.00
2023-04-04T19:33:39.037Z,0.00
2023-04-04T19:34:38.989Z,0.00
2023-04-04T19:35:39.188Z,0.00
2023-04-04T19:36:39.036Z,0.00
2023-04-04T19:37:38.988Z,0.00
2023-04-04T19:38:38.989Z,0.00
2023-04-04T19:39:38.944Z,0.00
2023-04-04T19:40:38.921Z,0.00
2023-04-04T19:41:38.908Z,0.00
2023-04-04T19:42:38.894Z,0.00
2023-04-04T19:43:38.907Z,0.00
2023-04-04T19:44:38.904Z,0.00
2023-04-04T19:45:39.029Z,0.00
2023-04-04T19:46:38.920Z,0.00
2023-04-04T19:47:38.842Z,0.00
2023-04-04T19:48:38.819Z,0.00
2023-04-04T19:49:38.797Z,0.00
2023-04-04T19:50:38.834Z,0.00
2023-04-04T19:51:38.800Z,0.00
2023-04-04T19:52:38.771Z,0.00
2023-04-04T19:53:38.771Z,0.00
2023-04-04T19:54:41.507Z,0.00
2023-04-04T19:55:39.032Z,0.00
2023-04-04T19:56:38.764Z,0.00
2023-04-04T19:57:38.701Z,0.00
2023-04-04T19:58:38.772Z,0.00
2023-04-04T19:59:38.686Z,0.00
2023-04-04T20:00:38.929Z,0.00
2023-04-04T20:01:44.755Z,0.00
2023-04-04T20:02:39.723Z,0.00
2023-04-04T20:03:38.641Z,0.00
2023-04-04T20:04:38.668Z,0.00
2023-04-04T20:05:38.793Z,0.00
2023-04-04T20:06:38.609Z,0.00
2023-04-04T20:07:38.642Z,0.00
2023-04-04T20:08:38.613Z,0.00
2023-04-04T20:09:38.550Z,0.00
2023-04-04T20:10:38.585Z,0.00
2023-04-04T20:11:38.571Z,0.00
2023-04-04T20:12:38.541Z,0.00
2023-04-04T20:13:38.519Z,0.00
2023-04-04T20:14:38.490Z,0.00
2023-04-04T20:15:38.504Z,0.00
2023-04-04T20:16:38.527Z,0.00
2023-04-04T20:17:38.468Z,0.00
2023-04-04T20:18:38.493Z,0.00
2023-04-04T20:19:38.434Z,0.00
2023-04-04T20:20:38.582Z,0.00
2023-04-04T20:21:38.455Z,0.00
2023-04-04T20:22:38.407Z,0.00
2023-04-04T20:23:38.412Z,0.00
2023-04-04T20:24:38.368Z,0.00
2023-04-04T20:25:38.381Z,0.00
2023-04-04T20:26:38.334Z,0.00
2023-04-04T20:27:38.345Z,0.00
2023-04-04T20:28:38.367Z,0.00
2023-04-04T20:29:38.319Z,0.00
2023-04-04T20:30:38.635Z,0.00
2023-04-04T20:31:38.345Z,0.00
2023-04-04T20:32:38.316Z,0.00
2023-04-04T20:33:38.220Z,0.00
2023-04-04T20:34:38.222Z,0.00
2023-04-04T20:35:38.303Z,0.00
2023-04-04T20:36:38.179Z,0.00
2023-04-04T20:37:38.175Z,0.00
2023-04-04T20:38:38.185Z,0.00
2023-04-04T20:39:38.200Z,0.00
2023-04-04T20:40:38.260Z,0.00
2023-04-04T20:41:38.149Z,0.00
2023-04-04T20:42:38.307Z,0.00
2023-04-04T20:43:38.110Z,0.00
2023-04-04T20:44:38.090Z,0.00
2023-04-04T20:45:38.084Z,0.00
2023-04-04T20:46:38.075Z,0.00
2023-04-04T20:47:38.134Z,0.00
2023-04-04T20:48:38.046Z,0.00
2023-04-04T20:49:38.056Z,0.00
2023-04-04T20:50:38.151Z,0.00
2023-04-04T20:51:38.029Z,0.00
2023-04-04T20:52:37.992Z,0.00
2023-04-04T20:53:37.976Z,0.00
2023-04-04T20:54:38.022Z,0.00
2023-04-04T20:55:37.963Z,0.00
2023-04-04T20:56:37.924Z,0.00
2023-04-04T20:57:37.971Z,0.00
2023-04-04T20:58:37.963Z,0.00
2023-04-04T20:59:37.944Z,0.00
2023-04-04T21:00:37.995Z,0.00
2023-04-04T21:01:37.950Z,0.00
2023-04-04T21:02:37.885Z,0.00
2023-04-04T21:03:37.857Z,0.00
2023-04-04T21:04:37.895Z,0.00
2023-04-04T21:06:57.526Z,0.00
2023-04-04T21:08:06.093Z,0.00
2023-04-04T21:09:07.624Z,0.00
2023-04-04T21:10:07.495Z,0.00
2023-04-04T21:11:05.998Z,0.00
2023-04-04T21:12:07.524Z,0.00
2023-04-04T21:13:07.252Z,0.00
2023-04-04T21:13:57.482Z,0.00
2023-04-04T21:14:57.513Z,0.00
2023-04-04T21:15:57.574Z,0.00
2023-04-04T21:16:57.438Z,0.00
2023-04-04T21:17:57.529Z,0.00
2023-04-04T21:18:57.447Z,0.00
2023-04-04T21:19:57.407Z,0.00
2023-04-04T21:20:57.399Z,0.00
2023-04-04T21:21:57.373Z,0.00
2023-04-04T21:22:57.401Z,0.00
2023-04-04T21:23:57.347Z,0.00
2023-04-04T21:24:57.404Z,0.00
2023-04-04T21:25:57.425Z,0.00
2023-04-04T21:26:57.314Z,0.00
2023-04-04T21:27:57.320Z,0.00
2023-04-04T21:28:57.322Z,0.00
2023-04-04T21:29:57.285Z,0.00
2023-04-04T21:30:57.339Z,0.00
2023-04-04T21:31:57.321Z,0.00
2023-04-04T21:32:57.400Z,0.00
2023-04-04T21:33:57.299Z,0.00
2023-04-04T21:34:57.254Z,0.00
2023-04-04T21:35:57.336Z,0.00
2023-04-04T21:36:57.198Z,0.00
2023-04-04T21:37:57.168Z,0.00
2023-04-04T21:38:57.163Z,0.00
2023-04-04T21:39:57.111Z,0.00
2023-04-04T21:40:57.163Z,0.00
2023-04-04T21:41:57.092Z,0.00
2023-04-04T21:42:57.138Z,0.00
2023-04-04T21:43:57.091Z,0.00
2023-04-04T21:44:57.104Z,0.00
2023-04-04T21:45:57.169Z,0.00
2023-04-04T21:46:57.025Z,0.00
2023-04-04T21:47:57.062Z,0.00
2023-04-04T21:48:57.029Z,0.00
2023-04-04T21:49:57.032Z,0.00
2023-04-04T21:50:56.976Z,0.00
2023-04-04T21:51:57.010Z,0.00
2023-04-04T21:52:57.015Z,0.00
2023-04-04T21:53:56.949Z,0.00
2023-04-04T21:54:56.916Z,0.00
2023-04-04T21:55:56.943Z,0.00
2023-04-04T21:56:56.907Z,0.00
2023-04-04T21:57:56.890Z,0.00
2023-04-04T21:58:56.894Z,0.00
